Time;durP1;ratioP1;P1;durP2;ratioP2;P2;SDS_P1;SDS_P2;PMS_P1;PMS_P2;Temp;Humidity;BMP_temperature;BMP_pressure;BME280_temperature;BME280_humidity;BME280_pressure;Samples;Min_cycle;Max_cycle;Signal;HPM_P1;HPM_P2
2021/09/21 00:01:33;;;;;;;4.60;1.58;;;;;;;;;;5077028;28;20497;-71
2021/09/21 00:03:58;;;;;;;7.15;1.60;;;;;;;;;;5082007;28;20468;-71
2021/09/21 00:06:24;;;;;;;3.88;1.23;;;;;;;;;;5091303;28;20031;-71
2021/09/21 00:08:49;;;;;;;2.97;1.30;;;;;;;;;;5086249;28;20117;-71
2021/09/21 00:11:15;;;;;;;3.72;1.50;;;;;;;;;;5076540;28;20467;-71
2021/09/21 00:13:41;;;;;;;2.53;1.48;;;;;;;;;;5076934;28;20024;-71
2021/09/21 00:16:06;;;;;;;1.92;1.13;;;;;;;;;;5082643;28;20024;-71
2021/09/21 00:18:33;;;;;;;3.70;1.42;;;;;;;;;;5092175;28;20031;-71
2021/09/21 00:20:59;;;;;;;3.17;1.30;;;;;;;;;;5092223;28;20024;-71
2021/09/21 00:23:25;;;;;;;5.45;1.38;;;;;;;;;;5084489;28;20424;-71
2021/09/21 00:25:50;;;;;;;3.63;1.20;;;;;;;;;;5072482;28;20114;-71
2021/09/21 00:28:24;;;;;;;2.55;1.30;;;;;;;;;;5071619;28;20464;-71
2021/09/21 00:30:52;;;;;;;3.85;1.33;;;;;;;;;;5074985;28;20036;-72
2021/09/21 00:33:21;;;;;;;3.00;1.40;;;;;;;;;;5077308;28;20511;-71
2021/09/21 00:35:48;;;;;;;2.55;1.30;;;;;;;;;;5088696;28;20024;-72
2021/09/21 00:38:17;;;;;;;4.20;1.40;;;;;;;;;;5082479;28;20032;-71
2021/09/21 00:40:43;;;;;;;4.85;1.17;;;;;;;;;;5071776;28;20357;-71
2021/09/21 00:43:10;;;;;;;2.15;1.10;;;;;;;;;;5071712;28;20224;-71
2021/09/21 00:45:37;;;;;;;4.93;1.40;;;;;;;;;;5089569;28;20028;-71
2021/09/21 00:48:03;;;;;;;3.17;1.23;;;;;;;;;;5087628;28;20052;-71
2021/09/21 00:50:30;;;;;;;2.53;1.20;;;;;;;;;;5076383;28;20027;-71
2021/09/21 00:52:59;;;;;;;3.47;1.33;;;;;;;;;;5091296;28;20126;-71
2021/09/21 00:55:24;;;;;;;3.72;1.20;;;;;;;;;;5087087;28;20058;-71
2021/09/21 00:57:50;;;;;;;4.80;1.55;;;;;;;;;;5079377;28;20024;-72
2021/09/21 01:00:18;;;;;;;2.78;1.27;;;;;;;;;;5073360;28;20495;-71
2021/09/21 01:02:44;;;;;;;2.20;1.27;;;;;;;;;;5071006;28;20388;-71
2021/09/21 01:05:11;;;;;;;1.55;1.02;;;;;;;;;;5078894;28;20031;-72
2021/09/21 01:07:38;;;;;;;1.95;1.05;;;;;;;;;;5091457;28;20031;-71
2021/09/21 01:10:09;;;;;;;2.80;1.17;;;;;;;;;;5079640;28;20145;-71
2021/09/21 01:12:35;;;;;;;4.00;1.52;;;;;;;;;;5076118;28;20124;-71
2021/09/21 01:15:01;;;;;;;2.33;1.02;;;;;;;;;;5077418;28;20058;-71
2021/09/21 01:17:28;;;;;;;2.50;1.00;;;;;;;;;;5086368;28;20476;-71
2021/09/21 01:19:54;;;;;;;3.35;1.20;;;;;;;;;;5079360;28;20521;-71
2021/09/21 01:22:20;;;;;;;3.78;1.55;;;;;;;;;;5082841;28;20032;-71
2021/09/21 01:24:45;;;;;;;2.10;1.60;;;;;;;;;;5089543;28;20039;-71
2021/09/21 01:27:11;;;;;;;3.70;1.30;;;;;;;;;;5066671;28;20016;-71
2021/09/21 01:29:37;;;;;;;2.83;1.20;;;;;;;;;;5062920;28;20071;-71
2021/09/21 01:32:03;;;;;;;3.08;1.20;;;;;;;;;;5070950;28;20483;-71
2021/09/21 01:34:28;;;;;;;3.22;1.38;;;;;;;;;;5078834;28;20020;-71
2021/09/21 01:36:54;;;;;;;2.33;1.20;;;;;;;;;;5089933;28;20545;-71
2021/09/21 01:39:19;;;;;;;2.70;1.02;;;;;;;;;;5080507;28;20037;-71
2021/09/21 01:41:46;;;;;;;1.60;1.10;;;;;;;;;;5071080;28;20017;-71
2021/09/21 01:44:16;;;;;;;3.75;1.30;;;;;;;;;;5079526;28;20020;-71
2021/09/21 01:46:42;;;;;;;2.13;1.20;;;;;;;;;;5070894;28;20085;-71
2021/09/21 01:49:07;;;;;;;2.40;1.00;;;;;;;;;;5086764;28;20020;-71
2021/09/21 01:51:39;;;;;;;2.42;1.05;;;;;;;;;;5071851;28;20133;-71
2021/09/21 01:54:20;;;;;;;3.85;1.42;;;;;;;;;;5074680;28;20416;-71
2021/09/21 01:59:29;;;;;;;2.75;1.17;;;;;;;;;;5075654;28;20093;-71
2021/09/21 02:01:54;;;;;;;2.33;1.10;;;;;;;;;;5062976;28;20497;-70
2021/09/21 02:04:21;;;;;;;2.72;1.10;;;;;;;;;;5054683;28;20389;-71
2021/09/21 02:06:46;;;;;;;2.90;1.30;;;;;;;;;;5090747;28;20028;-71
2021/09/21 02:09:13;;;;;;;5.88;1.70;;;;;;;;;;5081876;28;20174;-71
2021/09/21 02:11:40;;;;;;;3.33;1.20;;;;;;;;;;5060477;28;20089;-71
2021/09/21 02:14:11;;;;;;;1.63;1.02;;;;;;;;;;5094413;28;20028;-71
2021/09/21 02:16:37;;;;;;;5.90;1.30;;;;;;;;;;5056812;28;20151;-71
2021/09/21 02:19:02;;;;;;;3.60;1.20;;;;;;;;;;5092127;28;20107;-71
2021/09/21 02:21:29;;;;;;;3.63;1.52;;;;;;;;;;5094292;28;20486;-71
2021/09/21 02:23:56;;;;;;;4.43;1.23;;;;;;;;;;5080791;28;20028;-71
2021/09/21 02:26:24;;;;;;;2.17;1.10;;;;;;;;;;5074769;28;20089;-70
2021/09/21 02:28:50;;;;;;;5.22;1.55;;;;;;;;;;5085313;28;20028;-70
2021/09/21 02:31:16;;;;;;;2.72;1.23;;;;;;;;;;5074040;28;20043;-71
2021/09/21 02:33:42;;;;;;;3.20;1.35;;;;;;;;;;5073972;28;20438;-71
2021/09/21 02:36:07;;;;;;;2.78;1.27;;;;;;;;;;5056011;28;20141;-71
2021/09/21 02:38:35;;;;;;;2.75;1.30;;;;;;;;;;5092128;28;20024;-71
2021/09/21 02:41:00;;;;;;;3.35;1.40;;;;;;;;;;5092925;28;20027;-71
2021/09/21 02:43:26;;;;;;;2.97;1.10;;;;;;;;;;5088461;28;20025;-71
2021/09/21 02:45:51;;;;;;;2.53;1.30;;;;;;;;;;5094021;28;20078;-71
2021/09/21 02:48:17;;;;;;;2.97;1.10;;;;;;;;;;5089515;28;20149;-71
2021/09/21 02:50:44;;;;;;;2.67;1.20;;;;;;;;;;5087735;28;20456;-71
2021/09/21 02:53:09;;;;;;;3.72;1.15;;;;;;;;;;5083573;28;20035;-71
2021/09/21 02:55:35;;;;;;;2.42;1.15;;;;;;;;;;5082498;28;20460;-71
2021/09/21 02:58:00;;;;;;;1.77;1.15;;;;;;;;;;5073605;28;20028;-71
2021/09/21 03:00:27;;;;;;;3.22;1.15;;;;;;;;;;5076098;28;20028;-71
2021/09/21 03:02:54;;;;;;;3.00;1.38;;;;;;;;;;5073275;28;20040;-71
2021/09/21 03:05:24;;;;;;;3.25;1.50;;;;;;;;;;5076938;28;20556;-71
2021/09/21 03:08:05;;;;;;;4.50;1.40;;;;;;;;;;5094050;28;20032;-71
2021/09/21 03:10:44;;;;;;;2.85;1.17;;;;;;;;;;5086320;28;20070;-71
2021/09/21 03:13:46;;;;;;;5.00;1.20;;;;;;;;;;5074858;28;20024;-71
2021/09/21 03:18:56;;;;;;;2.85;1.17;;;;;;;;;;5073460;28;20038;-71
2021/09/21 03:21:25;;;;;;;3.38;1.40;;;;;;;;;;5074428;28;20693;-71
2021/09/21 03:23:51;;;;;;;4.32;2.03;;;;;;;;;;5079643;28;20017;-71
2021/09/21 03:26:16;;;;;;;2.85;1.40;;;;;;;;;;5080374;28;20126;-71
2021/09/21 03:28:42;;;;;;;3.70;1.45;;;;;;;;;;5078216;28;20021;-71
2021/09/21 03:31:07;;;;;;;3.47;1.58;;;;;;;;;;5082229;28;20024;-71
2021/09/21 03:33:33;;;;;;;3.67;1.15;;;;;;;;;;5090912;28;20467;-71
2021/09/21 03:35:58;;;;;;;3.65;1.40;;;;;;;;;;5091526;28;20116;-71
2021/09/21 03:38:27;;;;;;;3.22;1.60;;;;;;;;;;5092384;28;20465;-70
2021/09/21 03:40:53;;;;;;;2.65;1.40;;;;;;;;;;5078478;28;20052;-71
2021/09/21 03:43:18;;;;;;;2.83;1.58;;;;;;;;;;5073034;28;20109;-71
2021/09/21 03:45:44;;;;;;;2.70;1.40;;;;;;;;;;5076886;28;20419;-71
2021/09/21 03:48:09;;;;;;;2.28;1.40;;;;;;;;;;5092635;28;20589;-71
2021/09/21 03:50:35;;;;;;;3.53;1.25;;;;;;;;;;5087087;28;20421;-71
2021/09/21 03:53:02;;;;;;;2.78;1.42;;;;;;;;;;5073598;28;20047;-71
2021/09/21 03:55:28;;;;;;;4.15;1.42;;;;;;;;;;5082053;28;20097;-71
2021/09/21 03:57:54;;;;;;;2.92;1.48;;;;;;;;;;5089838;28;20019;-71
2021/09/21 04:00:19;;;;;;;3.80;1.50;;;;;;;;;;5075946;28;20716;-71
2021/09/21 04:02:45;;;;;;;5.68;2.45;;;;;;;;;;5090357;28;20036;-71
2021/09/21 04:05:11;;;;;;;10.43;5.10;;;;;;;;;;5074450;28;20408;-72
2021/09/21 04:07:37;;;;;;;8.20;3.90;;;;;;;;;;5072085;28;20029;-71
2021/09/21 04:10:04;;;;;;;7.57;2.42;;;;;;;;;;5075769;28;20456;-71
2021/09/21 04:12:29;;;;;;;3.75;1.90;;;;;;;;;;5078008;28;20507;-71
2021/09/21 04:14:54;;;;;;;4.28;2.17;;;;;;;;;;5090636;28;20023;-71
2021/09/21 04:17:20;;;;;;;4.70;2.10;;;;;;;;;;5083004;28;20107;-72
2021/09/21 04:19:45;;;;;;;4.35;1.73;;;;;;;;;;5072068;28;20328;-71
2021/09/21 04:22:18;;;;;;;2.92;1.58;;;;;;;;;;5083635;28;20051;-71
2021/09/21 04:24:43;;;;;;;7.20;1.70;;;;;;;;;;5052784;28;20025;-71
2021/09/21 04:27:10;;;;;;;5.07;2.08;;;;;;;;;;5072155;28;20020;-71
2021/09/21 04:29:36;;;;;;;3.10;1.60;;;;;;;;;;5070288;28;20024;-71
2021/09/21 04:32:02;;;;;;;3.28;1.60;;;;;;;;;;5084530;28;20027;-71
2021/09/21 04:34:31;;;;;;;2.63;1.50;;;;;;;;;;5074483;28;20054;-73
2021/09/21 04:36:58;;;;;;;3.50;1.42;;;;;;;;;;5071340;28;20464;-72
2021/09/21 04:39:24;;;;;;;3.58;1.60;;;;;;;;;;5053893;28;20111;-72
2021/09/21 04:41:50;;;;;;;2.20;1.35;;;;;;;;;;5078395;28;20024;-71
2021/09/21 04:44:16;;;;;;;5.07;1.50;;;;;;;;;;5073731;28;20508;-72
2021/09/21 04:46:43;;;;;;;3.35;1.20;;;;;;;;;;5075041;28;20040;-72
2021/09/21 04:49:11;;;;;;;2.63;1.33;;;;;;;;;;5083086;28;20035;-73
2021/09/21 04:51:36;;;;;;;2.90;1.45;;;;;;;;;;5058456;28;20462;-72
2021/09/21 04:54:02;;;;;;;3.03;1.48;;;;;;;;;;5074134;28;20077;-72
2021/09/21 04:56:28;;;;;;;4.55;1.73;;;;;;;;;;5071181;28;20025;-73
2021/09/21 04:58:53;;;;;;;3.17;1.35;;;;;;;;;;5088394;28;20028;-72
2021/09/21 05:01:19;;;;;;;3.45;1.48;;;;;;;;;;5074187;28;20035;-73
2021/09/21 05:03:45;;;;;;;3.97;1.42;;;;;;;;;;5062852;28;20366;-73
2021/09/21 05:06:11;;;;;;;3.35;1.67;;;;;;;;;;5051889;28;20025;-71
2021/09/21 05:08:36;;;;;;;5.18;1.67;;;;;;;;;;5051823;28;20441;-70
2021/09/21 05:11:04;;;;;;;4.70;1.48;;;;;;;;;;5060108;28;20120;-70
2021/09/21 05:13:30;;;;;;;1.95;1.30;;;;;;;;;;5055978;28;20115;-71
2021/09/21 05:15:55;;;;;;;2.42;1.60;;;;;;;;;;5071072;28;20107;-70
2021/09/21 05:18:21;;;;;;;2.50;1.50;;;;;;;;;;5057610;28;20029;-71
2021/09/21 05:20:47;;;;;;;4.25;1.58;;;;;;;;;;5048004;28;20515;-70
2021/09/21 05:23:12;;;;;;;3.05;1.60;;;;;;;;;;5055174;28;20477;-71
2021/09/21 05:25:38;;;;;;;4.00;1.73;;;;;;;;;;5051989;28;20144;-70
2021/09/21 05:28:04;;;;;;;4.22;1.70;;;;;;;;;;5050378;28;20028;-70
2021/09/21 05:30:30;;;;;;;3.38;1.60;;;;;;;;;;5051434;28;20028;-70
2021/09/21 05:32:56;;;;;;;6.60;2.15;;;;;;;;;;5051142;28;20381;-70
2021/09/21 05:35:23;;;;;;;4.18;1.92;;;;;;;;;;5050571;28;20052;-70
2021/09/21 05:37:48;;;;;;;5.28;2.05;;;;;;;;;;5055698;28;20021;-71
2021/09/21 05:40:17;;;;;;;2.70;1.75;;;;;;;;;;5060358;28;20484;-70
2021/09/21 05:42:44;;;;;;;3.35;2.13;;;;;;;;;;5056789;28;20021;-70
2021/09/21 05:45:10;;;;;;;4.25;1.90;;;;;;;;;;5056916;28;20548;-70
2021/09/21 05:47:39;;;;;;;5.00;1.83;;;;;;;;;;5057628;28;20031;-71
2021/09/21 05:50:06;;;;;;;4.80;2.20;;;;;;;;;;5057826;28;20465;-70
2021/09/21 05:52:31;;;;;;;4.85;2.15;;;;;;;;;;5068817;28;20114;-71
2021/09/21 05:55:04;;;;;;;3.72;2.10;;;;;;;;;;5056074;28;20437;-71
2021/09/21 05:57:30;;;;;;;4.28;2.15;;;;;;;;;;5050100;28;20036;-71
2021/09/21 05:59:56;;;;;;;4.35;2.10;;;;;;;;;;5069092;28;20040;-71
2021/09/21 06:02:23;;;;;;;4.07;1.98;;;;;;;;;;5073007;28;20496;-70
2021/09/21 06:04:49;;;;;;;7.90;1.90;;;;;;;;;;5055835;28;20469;-70
2021/09/21 06:07:15;;;;;;;4.18;1.58;;;;;;;;;;5064169;28;20036;-71
2021/09/21 06:09:41;;;;;;;4.38;1.80;;;;;;;;;;5070075;28;20051;-71
2021/09/21 06:12:06;;;;;;;2.80;1.50;;;;;;;;;;5063349;28;20021;-70
2021/09/21 06:14:32;;;;;;;2.38;1.45;;;;;;;;;;5073308;28;20432;-71
2021/09/21 06:16:57;;;;;;;2.67;1.50;;;;;;;;;;5061690;28;20024;-70
2021/09/21 06:19:22;;;;;;;2.97;1.33;;;;;;;;;;5060258;28;20439;-71
2021/09/21 06:21:48;;;;;;;3.70;1.45;;;;;;;;;;5071005;28;20056;-71
2021/09/21 06:24:13;;;;;;;2.70;1.30;;;;;;;;;;5064787;28;20494;-71
2021/09/21 06:26:39;;;;;;;2.35;1.45;;;;;;;;;;5057212;28;20522;-70
2021/09/21 06:29:04;;;;;;;4.68;1.42;;;;;;;;;;5053534;28;20035;-71
2021/09/21 06:31:31;;;;;;;3.95;1.40;;;;;;;;;;5054921;28;20527;-71
2021/09/21 06:33:57;;;;;;;2.28;1.40;;;;;;;;;;5063633;28;20035;-71
2021/09/21 06:36:22;;;;;;;3.35;1.40;;;;;;;;;;5070322;28;20484;-71
2021/09/21 06:38:48;;;;;;;2.22;1.40;;;;;;;;;;5062207;28;20067;-71
2021/09/21 06:41:13;;;;;;;1.40;0.90;;;;;;;;;;5063029;28;20020;-70
2021/09/21 06:43:39;;;;;;;3.05;1.42;;;;;;;;;;5066738;28;20021;-71
2021/09/21 06:46:04;;;;;;;2.97;1.17;;;;;;;;;;5053498;28;20492;-71
2021/09/21 06:48:30;;;;;;;4.07;1.40;;;;;;;;;;5054438;28;20060;-71
2021/09/21 06:50:55;;;;;;;3.47;1.30;;;;;;;;;;5060835;28;20354;-71
2021/09/21 06:53:21;;;;;;;2.70;1.33;;;;;;;;;;5066761;28;20590;-71
2021/09/21 06:55:47;;;;;;;3.17;1.10;;;;;;;;;;5052437;28;20559;-71
2021/09/21 06:58:13;;;;;;;3.17;1.40;;;;;;;;;;5064692;28;20111;-71
2021/09/21 07:00:40;;;;;;;1.90;1.27;;;;;;;;;;5062105;28;20151;-71
2021/09/21 07:03:07;;;;;;;2.10;1.30;;;;;;;;;;5072259;28;20048;-71
2021/09/21 07:05:33;;;;;;;2.97;1.30;;;;;;;;;;5079318;28;20137;-71
2021/09/21 07:07:59;;;;;;;2.05;1.30;;;;;;;;;;5090041;28;20023;-72
2021/09/21 07:10:25;;;;;;;3.13;1.38;;;;;;;;;;5076072;28;20461;-71
2021/09/21 07:12:50;;;;;;;6.72;1.55;;;;;;;;;;5090208;28;20031;-71
2021/09/21 07:15:21;;;;;;;3.75;1.38;;;;;;;;;;5074590;28;20506;-70
2021/09/21 07:17:47;;;;;;;3.80;1.35;;;;;;;;;;5082317;28;20424;-70
2021/09/21 07:20:13;;;;;;;3.72;1.35;;;;;;;;;;5083180;28;20024;-70
2021/09/21 07:22:39;;;;;;;1.58;1.00;;;;;;;;;;5078084;28;20071;-70
2021/09/21 07:25:05;;;;;;;2.10;1.10;;;;;;;;;;5073682;28;20058;-70
2021/09/21 07:27:31;;;;;;;2.13;1.10;;;;;;;;;;5072734;28;20029;-70
2021/09/21 07:29:56;;;;;;;3.00;1.20;;;;;;;;;;5086980;28;20061;-70
2021/09/21 07:32:23;;;;;;;2.05;1.10;;;;;;;;;;5087756;28;20112;-70
2021/09/21 07:34:48;;;;;;;1.90;0.90;;;;;;;;;;5076540;28;20095;-70
2021/09/21 07:37:14;;;;;;;2.13;0.93;;;;;;;;;;5056059;28;20128;-70
2021/09/21 07:39:39;;;;;;;2.47;0.80;;;;;;;;;;5071268;28;20032;-70
2021/09/21 07:42:05;;;;;;;1.77;0.85;;;;;;;;;;5078776;28;20023;-70
2021/09/21 07:44:31;;;;;;;1.27;0.90;;;;;;;;;;5077940;28;20036;-70
2021/09/21 07:46:58;;;;;;;1.15;0.80;;;;;;;;;;5089167;28;20483;-70
2021/09/21 07:49:24;;;;;;;2.67;1.00;;;;;;;;;;5081032;28;20031;-70
2021/09/21 07:51:50;;;;;;;3.28;1.00;;;;;;;;;;5072242;28;20346;-70
2021/09/21 07:54:15;;;;;;;2.25;0.80;;;;;;;;;;5077636;28;20024;-70
2021/09/21 07:56:41;;;;;;;3.30;0.77;;;;;;;;;;5073289;28;20443;-70
2021/09/21 07:59:07;;;;;;;1.45;0.70;;;;;;;;;;5076434;28;20028;-70
2021/09/21 08:01:35;;;;;;;2.97;1.05;;;;;;;;;;5068472;28;20455;-70
2021/09/21 08:04:01;;;;;;;2.63;0.95;;;;;;;;;;5077597;28;20025;-70
2021/09/21 08:06:27;;;;;;;1.70;1.02;;;;;;;;;;5071994;28;20051;-70
2021/09/21 08:08:53;;;;;;;1.40;0.90;;;;;;;;;;5072582;28;20034;-72
2021/09/21 08:11:20;;;;;;;2.22;1.20;;;;;;;;;;5082463;28;20097;-71
2021/09/21 08:13:45;;;;;;;2.92;1.20;;;;;;;;;;5080552;28;20039;-70
2021/09/21 08:16:11;;;;;;;1.40;0.93;;;;;;;;;;5072501;28;20024;-71
2021/09/21 08:18:37;;;;;;;2.08;0.80;;;;;;;;;;5074419;28;20439;-72
2021/09/21 08:21:03;;;;;;;2.20;0.98;;;;;;;;;;5082756;28;20025;-72
2021/09/21 08:23:28;;;;;;;2.83;1.00;;;;;;;;;;5081754;28;20408;-71
2021/09/21 08:25:54;;;;;;;1.42;1.05;;;;;;;;;;5084472;28;20352;-71
2021/09/21 08:28:21;;;;;;;2.17;1.17;;;;;;;;;;5081319;28;20028;-74
2021/09/21 08:30:48;;;;;;;2.25;1.17;;;;;;;;;;5087264;28;20027;-72
2021/09/21 08:33:14;;;;;;;2.35;1.10;;;;;;;;;;5084128;28;20379;-71
2021/09/21 08:35:39;;;;;;;2.30;1.23;;;;;;;;;;5082288;28;20032;-71
2021/09/21 08:38:05;;;;;;;1.88;1.00;;;;;;;;;;5075419;28;20027;-72
2021/09/21 08:40:31;;;;;;;2.85;1.10;;;;;;;;;;5081064;28;20037;-73
2021/09/21 08:42:58;;;;;;;2.70;1.10;;;;;;;;;;5084427;28;20384;-71
2021/09/21 08:45:24;;;;;;;2.10;1.10;;;;;;;;;;5071672;28;20032;-73
2021/09/21 08:47:50;;;;;;;2.15;1.23;;;;;;;;;;5074746;28;20143;-73
2021/09/21 08:50:16;;;;;;;2.80;1.08;;;;;;;;;;5072683;28;20668;-71
2021/09/21 08:52:42;;;;;;;2.28;1.10;;;;;;;;;;5075906;28;20020;-72
2021/09/21 08:55:10;;;;;;;1.95;1.00;;;;;;;;;;5076701;28;20423;-73
2021/09/21 08:57:37;;;;;;;1.48;0.95;;;;;;;;;;5078889;28;20028;-72
2021/09/21 09:00:07;;;;;;;1.55;0.95;;;;;;;;;;5089408;28;20615;-72
2021/09/21 09:02:33;;;;;;;3.28;1.10;;;;;;;;;;5086035;28;20040;-73
2021/09/21 09:05:09;;;;;;;3.47;1.48;;;;;;;;;;5074236;28;20407;-72
2021/09/21 09:07:54;;;;;;;2.55;1.13;;;;;;;;;;5079976;28;20020;-72
2021/09/21 09:10:24;;;;;;;2.92;1.20;;;;;;;;;;5070992;28;20059;-72
2021/09/21 09:12:50;;;;;;;3.88;1.27;;;;;;;;;;5085934;28;20388;-72
2021/09/21 09:15:18;;;;;;;1.35;0.98;;;;;;;;;;5070390;28;20032;-71
2021/09/21 09:17:58;;;;;;;2.90;1.30;;;;;;;;;;5078906;28;20031;-71
2021/09/21 09:20:32;;;;;;;2.65;1.25;;;;;;;;;;5073117;28;20029;-71
2021/09/21 09:22:58;;;;;;;1.20;0.90;;;;;;;;;;5054560;28;20436;-71
2021/09/21 09:25:24;;;;;;;2.53;1.10;;;;;;;;;;5075058;28;20028;-70
2021/09/21 09:27:51;;;;;;;1.95;0.88;;;;;;;;;;5068243;28;20103;-72
2021/09/21 09:30:25;;;;;;;3.97;1.00;;;;;;;;;;5069372;28;20025;-70
2021/09/21 09:32:57;;;;;;;2.45;1.00;;;;;;;;;;5070037;28;20051;-71
2021/09/21 09:35:29;;;;;;;3.42;1.10;;;;;;;;;;5067512;28;20078;-71
2021/09/21 09:37:58;;;;;;;3.35;1.15;;;;;;;;;;5076065;28;20358;-71
2021/09/21 09:40:24;;;;;;;2.30;1.00;;;;;;;;;;5088762;28;20455;-71
2021/09/21 09:42:50;;;;;;;2.70;1.05;;;;;;;;;;5081867;28;20059;-71
2021/09/21 09:45:31;;;;;;;2.28;1.20;;;;;;;;;;5087072;28;20060;-70
2021/09/21 09:47:57;;;;;;;5.10;1.30;;;;;;;;;;5063438;28;20150;-71
2021/09/21 09:50:32;;;;;;;2.42;1.23;;;;;;;;;;5069857;28;20024;-71
2021/09/21 09:53:06;;;;;;;2.20;1.10;;;;;;;;;;5054738;28;20021;-70
2021/09/21 09:55:33;;;;;;;3.05;1.10;;;;;;;;;;5076035;28;20035;-70
2021/09/21 09:58:00;;;;;;;4.57;1.10;;;;;;;;;;5073167;28;20020;-71
2021/09/21 10:00:27;;;;;;;2.13;1.00;;;;;;;;;;5070850;28;20376;-72
2021/09/21 10:02:53;;;;;;;8.40;1.33;;;;;;;;;;5089685;28;20045;-71
2021/09/21 10:05:19;;;;;;;2.08;0.90;;;;;;;;;;5074918;28;20026;-71
2021/09/21 10:07:46;;;;;;;2.97;1.05;;;;;;;;;;5083679;28;20115;-70
2021/09/21 10:10:12;;;;;;;1.67;0.90;;;;;;;;;;5078118;28;20039;-71
2021/09/21 10:12:39;;;;;;;3.05;1.10;;;;;;;;;;5059682;28;20028;-71
2021/09/21 10:15:09;;;;;;;1.98;1.20;;;;;;;;;;5073293;28;20040;-71
2021/09/21 10:17:35;;;;;;;2.03;1.20;;;;;;;;;;5084887;28;20510;-71
2021/09/21 10:20:12;;;;;;;2.55;1.00;;;;;;;;;;5075659;28;20040;-72
2021/09/21 10:22:38;;;;;;;3.35;1.05;;;;;;;;;;5049052;28;20041;-71
2021/09/21 10:25:07;;;;;;;3.08;1.17;;;;;;;;;;5050083;28;20186;-71
2021/09/21 10:27:37;;;;;;;2.60;1.17;;;;;;;;;;5050056;28;20025;-71
2021/09/21 10:30:08;;;;;;;2.53;1.10;;;;;;;;;;5049893;28;20380;-71
2021/09/21 10:32:46;;;;;;;2.40;1.00;;;;;;;;;;5051477;28;20171;-70
2021/09/21 10:35:15;;;;;;;4.95;1.08;;;;;;;;;;5088397;28;20024;-71
2021/09/21 10:37:41;;;;;;;1.70;1.10;;;;;;;;;;5068338;28;20357;-71
2021/09/21 10:40:09;;;;;;;3.75;1.02;;;;;;;;;;5075731;28;20035;-71
2021/09/21 10:42:35;;;;;;;2.45;1.00;;;;;;;;;;5073685;28;20173;-73
2021/09/21 10:45:04;;;;;;;1.60;0.95;;;;;;;;;;5081790;28;20027;-72
2021/09/21 10:47:36;;;;;;;2.38;1.05;;;;;;;;;;5084642;28;20357;-71
2021/09/21 10:50:18;;;;;;;1.88;0.90;;;;;;;;;;5072976;28;20499;-72
2021/09/21 10:52:45;;;;;;;1.92;1.02;;;;;;;;;;5072830;28;20162;-71
2021/09/21 10:55:14;;;;;;;1.92;1.05;;;;;;;;;;5073007;28;20141;-71
2021/09/21 10:57:46;;;;;;;1.80;1.10;;;;;;;;;;5072075;28;20024;-71
2021/09/21 11:00:15;;;;;;;2.85;1.00;;;;;;;;;;5072023;28;20031;-70
2021/09/21 11:02:49;;;;;;;2.42;1.10;;;;;;;;;;5073724;28;20040;-71
2021/09/21 11:05:17;;;;;;;1.90;0.90;;;;;;;;;;5084920;28;20066;-71
2021/09/21 11:08:03;;;;;;;2.03;0.70;;;;;;;;;;5075340;28;20024;-71
2021/09/21 11:10:34;;;;;;;5.30;1.10;;;;;;;;;;5093251;28;20539;-71
2021/09/21 11:13:01;;;;;;;2.78;1.02;;;;;;;;;;5082279;28;20480;-71
2021/09/21 11:15:28;;;;;;;2.35;1.20;;;;;;;;;;5073495;28;20028;-71
2021/09/21 11:18:21;;;;;;;3.50;1.10;;;;;;;;;;5088475;28;20024;-71
2021/09/21 11:21:12;;;;;;;1.30;1.00;;;;;;;;;;5070053;28;20040;-71
2021/09/21 11:23:40;;;;;;;1.80;1.00;;;;;;;;;;5087917;28;20048;-72
2021/09/21 11:26:11;;;;;;;2.72;1.10;;;;;;;;;;5073690;28;20036;-71
2021/09/21 11:28:43;;;;;;;1.70;1.10;;;;;;;;;;5083083;28;20055;-71
2021/09/21 11:31:09;;;;;;;1.75;1.10;;;;;;;;;;5052491;28;20497;-71
2021/09/21 11:33:37;;;;;;;4.53;1.00;;;;;;;;;;5082238;28;20052;-72
2021/09/21 11:36:06;;;;;;;1.52;1.00;;;;;;;;;;5089852;28;20457;-73
2021/09/21 11:38:34;;;;;;;2.38;0.95;;;;;;;;;;5083844;28;20031;-72
2021/09/21 11:41:01;;;;;;;1.70;0.90;;;;;;;;;;5075489;28;20141;-72
2021/09/21 11:43:29;;;;;;;2.28;1.00;;;;;;;;;;5076272;28;20024;-73
2021/09/21 11:45:54;;;;;;;1.00;0.80;;;;;;;;;;5073101;28;20059;-71
2021/09/21 11:48:21;;;;;;;1.73;1.00;;;;;;;;;;5092634;28;20366;-71
2021/09/21 11:50:47;;;;;;;3.13;1.05;;;;;;;;;;5090496;28;20028;-71
2021/09/21 11:53:15;;;;;;;1.35;1.25;;;;;;;;;;5089588;28;20031;-71
2021/09/21 11:55:43;;;;;;;2.35;1.00;;;;;;;;;;5083152;28;20047;-71
2021/09/21 11:58:10;;;;;;;3.53;1.00;;;;;;;;;;5091959;28;20031;-71
2021/09/21 12:00:44;;;;;;;1.85;1.02;;;;;;;;;;5091406;28;20020;-73
2021/09/21 12:03:13;;;;;;;2.00;1.00;;;;;;;;;;5090740;28;20557;-74
2021/09/21 12:05:41;;;;;;;4.00;1.10;;;;;;;;;;5092003;28;20028;-73
2021/09/21 12:08:13;;;;;;;1.20;0.85;;;;;;;;;;5092795;28;20028;-73
2021/09/21 12:10:39;;;;;;;1.40;1.08;;;;;;;;;;5092187;28;20649;-73
2021/09/21 12:13:10;;;;;;;2.45;1.10;;;;;;;;;;5091924;28;20016;-72
2021/09/21 12:15:37;;;;;;;56.95;3.63;;;;;;;;;;5089861;28;20035;-71
2021/09/21 12:18:07;;;;;;;1.55;0.90;;;;;;;;;;5087032;28;20020;-74
2021/09/21 12:20:33;;;;;;;1.48;1.08;;;;;;;;;;5072426;28;20028;-70
2021/09/21 12:23:00;;;;;;;2.97;1.10;;;;;;;;;;5076377;28;20425;-73
2021/09/21 12:25:31;;;;;;;1.30;1.02;;;;;;;;;;5083904;28;20466;-73
2021/09/21 12:27:57;;;;;;;1.65;0.95;;;;;;;;;;5090484;28;20044;-72
2021/09/21 12:30:24;;;;;;;2.13;1.00;;;;;;;;;;5077478;28;20468;-73
2021/09/21 12:33:01;;;;;;;2.63;1.20;;;;;;;;;;5072575;28;20032;-71
2021/09/21 12:35:30;;;;;;;1.17;0.90;;;;;;;;;;5080685;28;20155;-72
2021/09/21 12:38:14;;;;;;;3.30;1.15;;;;;;;;;;5086886;28;20113;-73
2021/09/21 12:40:58;;;;;;;2.60;0.93;;;;;;;;;;5082758;28;20499;-73
2021/09/21 12:43:41;;;;;;;1.83;1.10;;;;;;;;;;5074803;28;20082;-73
2021/09/21 12:46:08;;;;;;;2.78;1.20;;;;;;;;;;5071656;28;20070;-73
2021/09/21 12:48:42;;;;;;;3.55;1.17;;;;;;;;;;5071667;28;20056;-73
2021/09/21 12:51:09;;;;;;;2.55;1.10;;;;;;;;;;5076089;28;20033;-72
2021/09/21 12:53:35;;;;;;;2.58;1.27;;;;;;;;;;5087221;28;20412;-71
2021/09/21 12:56:04;;;;;;;1.80;1.00;;;;;;;;;;5078458;28;20032;-72
2021/09/21 12:58:34;;;;;;;1.20;0.95;;;;;;;;;;5076624;28;20111;-71
2021/09/21 13:01:01;;;;;;;3.80;1.10;;;;;;;;;;5090065;28;20055;-71
2021/09/21 13:03:26;;;;;;;2.45;1.40;;;;;;;;;;5082329;28;20040;-72
2021/09/21 13:05:52;;;;;;;2.33;0.98;;;;;;;;;;5072052;28;20418;-72
2021/09/21 13:08:18;;;;;;;1.55;1.00;;;;;;;;;;5075722;28;20376;-71
2021/09/21 13:10:44;;;;;;;2.92;1.17;;;;;;;;;;5072107;28;20044;-72
2021/09/21 13:13:09;;;;;;;2.53;1.20;;;;;;;;;;5076565;28;20016;-73
2021/09/21 13:15:37;;;;;;;2.30;1.08;;;;;;;;;;5075060;28;20028;-72
2021/09/21 13:18:04;;;;;;;2.42;1.10;;;;;;;;;;5054528;28;20480;-73
2021/09/21 13:20:33;;;;;;;1.67;1.10;;;;;;;;;;5077492;28;20028;-72
2021/09/21 13:23:00;;;;;;;3.45;0.90;;;;;;;;;;5070930;28;20086;-73
2021/09/21 13:25:28;;;;;;;1.25;0.90;;;;;;;;;;5076440;28;20107;-73
2021/09/21 13:27:54;;;;;;;1.17;0.90;;;;;;;;;;5079391;28;20135;-72
2021/09/21 13:30:20;;;;;;;2.67;0.90;;;;;;;;;;5070505;28;20078;-73
2021/09/21 13:32:46;;;;;;;1.30;0.90;;;;;;;;;;5076868;28;20428;-72
2021/09/21 13:35:14;;;;;;;1.70;0.90;;;;;;;;;;5080940;28;20107;-73
2021/09/21 13:37:40;;;;;;;1.73;0.90;;;;;;;;;;5068144;28;20028;-73
2021/09/21 13:40:08;;;;;;;3.65;1.45;;;;;;;;;;5076814;28;20042;-72
2021/09/21 13:42:33;;;;;;;1.85;1.02;;;;;;;;;;5072274;28;20032;-72
2021/09/21 13:44:59;;;;;;;2.47;0.90;;;;;;;;;;5083245;28;20028;-73
2021/09/21 13:47:24;;;;;;;5.93;1.30;;;;;;;;;;5073074;28;20459;-73
2021/09/21 13:49:50;;;;;;;2.60;1.08;;;;;;;;;;5078590;28;20598;-72
2021/09/21 13:52:18;;;;;;;2.63;1.20;;;;;;;;;;5080301;28;20055;-72
2021/09/21 13:54:44;;;;;;;2.22;1.30;;;;;;;;;;5091131;28;20031;-72
2021/09/21 13:57:09;;;;;;;3.15;1.23;;;;;;;;;;5072117;28;20507;-71
2021/09/21 13:59:35;;;;;;;1.40;0.90;;;;;;;;;;5076674;28;20091;-73
2021/09/21 14:02:04;;;;;;;1.52;0.88;;;;;;;;;;5088017;28;20040;-72
2021/09/21 14:04:35;;;;;;;4.38;1.10;;;;;;;;;;5088365;28;20027;-71
2021/09/21 14:07:01;;;;;;;1.27;1.10;;;;;;;;;;5088669;28;20042;-71
2021/09/21 14:09:28;;;;;;;2.78;1.10;;;;;;;;;;5093403;28;20031;-72
2021/09/21 14:11:54;;;;;;;1.10;0.90;;;;;;;;;;5082929;28;20036;-72
2021/09/21 14:14:21;;;;;;;1.58;0.93;;;;;;;;;;5074938;28;20622;-73
2021/09/21 14:16:47;;;;;;;3.13;1.15;;;;;;;;;;5075283;28;20020;-73
2021/09/21 14:19:13;;;;;;;1.80;1.20;;;;;;;;;;5075145;28;20100;-73
2021/09/21 14:21:39;;;;;;;1.58;1.10;;;;;;;;;;5075929;28;20387;-71
2021/09/21 14:24:05;;;;;;;1.88;1.25;;;;;;;;;;5094090;28;20016;-70
2021/09/21 14:26:31;;;;;;;1.23;0.88;;;;;;;;;;5067055;28;20032;-72
2021/09/21 14:28:57;;;;;;;1.80;1.30;;;;;;;;;;5074563;28;20021;-72
2021/09/21 14:31:23;;;;;;;2.95;1.17;;;;;;;;;;5075405;28;20020;-72
2021/09/21 14:33:48;;;;;;;2.40;1.10;;;;;;;;;;5083780;28;20060;-72
2021/09/21 14:36:14;;;;;;;2.10;1.17;;;;;;;;;;5087298;28;20028;-72
2021/09/21 14:38:40;;;;;;;1.77;1.08;;;;;;;;;;5086567;28;20039;-72
2021/09/21 14:41:05;;;;;;;3.83;1.10;;;;;;;;;;5093860;28;20604;-71
2021/09/21 14:43:35;;;;;;;1.02;0.90;;;;;;;;;;5087494;28;20024;-71
2021/09/21 14:46:01;;;;;;;1.83;1.10;;;;;;;;;;5056944;28;20107;-71
2021/09/21 14:48:26;;;;;;;1.38;1.10;;;;;;;;;;5093862;28;20391;-70
2021/09/21 14:50:54;;;;;;;2.25;1.15;;;;;;;;;;5083807;28;20020;-71